Terminal Aerodrome Forecast
Issued by NWS

Home | Current Version | Previous Version | Text Only | Print | Product List | Glossary On
Versions: 1 2 3 4 5 6 7 8 9 10 11 12 13 14 15 16 17 18 19
000
FTAK31 PAJN 062300
TAFAYA
TAF
PAYA 062322Z 0700/0724 25010KT P6SM SCT025 BKN200
     FM070400 12004KT P6SM SCT050 OVC100
     FM071200 12008KT P6SM FEW010 SCT025 OVC050
     FM071600 11010KT 6SM -RA SCT020 OVC030
     FM072000 13010G18KT 4SM -RA BR OVC015
      AMD LTD TO CLD VIS AND WIND 0701/0710=

USA.gov is the U.S. government's official web portal to all federal, state and local government web resources and services.